M I D A S
Marine Information and Data Acquisition System
Tripno 977 of the Zeeleeuw from 2005-10-24 06:41:04 to 2005-10-24 14:23:06
Back to CruiseResearch ActivitiesStationsMapUnderway DataData graphs

EquipmentUnitsComment
TimeDGPSUTC
LatitudeDGPSDM.mWGS84
LongitudeDGPSDM.mWGS84
TemperatureSBE03/SBE38deg celciusITS90
ConductivitySBE21S/mITS90
SalinitySBE21 Practical Salinity Units
ChlorophylAChelsea fluorimeterg/lCalibrated in Aceton
Missing or incorrect values are displayed as -999
Sea surface data collected by the RV Zeeleeuw from 2005-10-24 06:42:02 to 2005-10-24 14:33:23
Time Latitude Longitude Temperature Conductivity Salinity ChlorophylA
2005-10-24 06:43:07 51°13.616 2°56.036 -999 0.079177 0.375492 -1.354309
2005-10-24 06:44:07 51°13.643 2°55.941 -999 0.079177 0.375547 -1.3206
2005-10-24 06:45:07 51°13.676 2°55.832 -999 0.079177 0.375607 -1.354309
2005-10-24 06:46:07 51°13.683 2°55.753 -999 0.102019 0.488155 -1.084634
2005-10-24 06:47:07 51°13.707 2°55.763 -999 3.931147 31.106006 -1.421728
2005-10-24 06:48:07 51°13.775 2°55.692 -999 3.830432 30.867082 -1.421728
2005-10-24 06:49:07 51°13.901 2°55.578 -999 3.722478 29.994469 -1.421728
2005-10-24 06:50:07 51°14.049 2°55.474 -999 3.837895 31.118327 -1.421728
2005-10-24 06:51:07 51°14.204 2°55.347 -999 3.824529 31.029021 -1.421728
2005-10-24 06:52:07 51°14.334 2°55.12 -999 3.781946 30.689713 -1.421728
2005-10-24 06:53:07 51°14.466 2°54.89 -999 3.846807 31.27255 -1.421728
2005-10-24 06:54:07 51°14.565 2°54.608 -999 4.024759 32.909244 -1.421728
2005-10-24 06:55:07 51°14.657 2°54.305 -999 4.083954 33.459175 -1.421728
2005-10-24 06:56:07 51°14.742 2°53.994 -999 4.168766 34.116288 -1.455437
2005-10-24 06:57:07 51°14.812 2°53.676 -999 4.209414 34.323948 -1.421728
2005-10-24 06:58:07 51°14.873 2°53.349 -999 4.235962 34.465211 -1.421728
2005-10-24 06:59:07 51°14.925 2°53.018 -999 4.240628 34.48051 -1.421728
2005-10-24 07:00:07 51°14.961 2°52.681 -999 4.20651 34.288694 -1.421728
2005-10-24 07:01:07 51°14.96 2°52.344 -999 4.207548 34.353906 -1.421728
2005-10-24 07:02:07 51°14.961 2°52.005 -999 4.206718 34.32357 -1.421728
2005-10-24 07:03:07 51°14.964 2°51.666 -999 4.227873 34.437829 -1.421728
2005-10-24 07:04:07 51°14.962 2°51.33 -999 4.254836 34.560472 -1.421728
2005-10-24 07:05:07 51°14.929 2°51.001 -999 4.26583 34.615515 -1.421728
2005-10-24 07:06:07 51°14.878 2°50.678 -999 4.268422 34.630236 -1.388018
2005-10-24 07:07:07 51°14.821 2°50.357 -999 4.270289 34.632493 -1.421728
2005-10-24 07:08:07 51°14.772 2°50.032 -999 4.272363 34.632963 -1.421728
2005-10-24 07:09:07 51°14.721 2°49.708 -999 4.273504 34.63304 -1.388018
2005-10-24 07:10:07 51°14.658 2°49.392 -999 4.274645 34.632384 -1.421728
2005-10-24 07:11:07 51°14.589 2°49.079 -999 4.276615 34.624598 -1.421728
2005-10-24 07:12:07 51°14.519 2°48.768 -999 4.279 34.616926 -1.421728
2005-10-24 07:13:07 51°14.447 2°48.457 -999 4.27734 34.573431 -1.388018
2005-10-24 07:14:07 51°14.376 2°48.146 -999 4.282733 34.599562 -1.421728
2005-10-24 07:15:07 51°14.305 2°47.834 -999 4.283977 34.586015 -1.388018
2005-10-24 07:16:07 51°14.239 2°47.52 -999 4.285429 34.578001 -1.388018
2005-10-24 07:17:07 51°14.219 2°47.187 -999 4.283666 34.54318 -1.388018
2005-10-24 07:18:07 51°14.214 2°46.851 -999 4.286777 34.558159 -1.388018
2005-10-24 07:19:07 51°14.208 2°46.515 -999 4.286881 34.540209 -1.388018
2005-10-24 07:20:07 51°14.204 2°46.178 -999 4.289473 34.551234 -1.388018
2005-10-24 07:21:07 51°14.198 2°45.843 -999 4.289785 34.546054 -1.388018
2005-10-24 07:22:07 51°14.193 2°45.508 -999 4.287088 34.515239 -1.388018
2005-10-24 07:23:07 51°14.187 2°45.173 -999 4.290096 34.543053 -1.388018
2005-10-24 07:24:07 51°14.181 2°44.84 -999 4.289266 34.54501 -1.388018
2005-10-24 07:25:07 51°14.187 2°44.504 -999 4.288125 34.544166 -1.388018
2005-10-24 07:26:07 51°14.222 2°44.164 -999 4.28771 34.536799 -1.388018
2005-10-24 07:27:07 51°14.249 2°43.827 -999 4.28408 34.498296 -1.388018
2005-10-24 07:28:07 51°14.276 2°43.491 -999 4.290511 34.549692 -1.388018
2005-10-24 07:29:07 51°14.303 2°43.155 -999 4.291133 34.560378 -1.388018
2005-10-24 07:30:07 51°14.33 2°42.819 -999 4.287295 34.537415 -1.388018
2005-10-24 07:31:07 51°14.357 2°42.484 -999 4.290615 34.56805 -1.388018
2005-10-24 07:32:07 51°14.383 2°42.15 -999 4.292792 34.565165 -1.421728
2005-10-24 07:33:07 51°14.409 2°41.817 -999 4.293829 34.567249 -1.388018
2005-10-24 07:34:07 51°14.437 2°41.483 -999 4.294244 34.571711 -1.388018
2005-10-24 07:35:07 51°14.466 2°41.149 -999 4.295593 34.581676 -1.388018
2005-10-24 07:36:07 51°14.488 2°40.812 -999 4.299223 34.601297 -1.421728
2005-10-24 07:37:07 51°14.535 2°40.48 -999 4.301505 34.615306 -1.388018
2005-10-24 07:38:07 51°14.59 2°40.151 -999 4.300779 34.629112 -1.421728
2005-10-24 07:39:07 51°14.643 2°39.821 -999 4.300675 34.637631 -1.388018
2005-10-24 07:40:07 51°14.695 2°39.49 -999 4.30192 34.645936 -1.421728
2005-10-24 07:41:07 51°14.747 2°39.159 -999 4.306172 34.641342 -1.421728
2005-10-24 07:42:07 51°14.8 2°38.829 -999 4.317684 34.622332 -1.421728
2005-10-24 07:43:07 51°14.853 2°38.503 -999 4.323596 34.610346 -1.421728
2005-10-24 07:44:07 51°14.905 2°38.174 -999 4.328159 34.605087 -1.421728
2005-10-24 07:45:07 51°14.957 2°37.848 -999 4.330441 34.604626 -1.421728
2005-10-24 07:46:07 51°15.01 2°37.522 -999 4.332308 34.606933 -1.421728
2005-10-24 07:47:07 51°15.063 2°37.195 -999 4.333138 34.606441 -1.421728
2005-10-24 07:48:07 51°15.116 2°36.867 -999 4.333553 34.606554 -1.421728
2005-10-24 07:49:07 51°15.171 2°36.539 -999 4.335212 34.608446 -1.421728
2005-10-24 07:50:07 51°15.23 2°36.213 -999 4.338842 34.615008 -1.421728
2005-10-24 07:51:07 51°15.314 2°35.899 -999 4.339776 34.617598 -1.421728
2005-10-24 07:52:07 51°15.406 2°35.589 -999 4.34434 34.626027 -1.421728
2005-10-24 07:53:07 51°15.512 2°35.291 -999 4.351497 34.636063 -1.421728
2005-10-24 07:54:07 51°15.617 2°34.992 -999 4.355957 34.639268 -1.421728
2005-10-24 07:55:07 51°15.72 2°34.691 -999 4.354816 34.636982 -1.421728
2005-10-24 07:56:07 51°15.822 2°34.389 -999 4.355335 34.640884 -1.421728
2005-10-24 07:57:07 51°15.937 2°34.098 -999 4.358032 34.647713 -1.421728
2005-10-24 07:58:07 51°16.065 2°33.822 -999 4.365604 34.660716 -1.421728
2005-10-24 07:59:07 51°16.2 2°33.553 -999 4.36996 34.676566 -1.421728
2005-10-24 08:00:07 51°16.34 2°33.286 -999 4.368923 34.66307 -1.421728
2005-10-24 08:01:07 51°16.493 2°33.033 -999 4.369131 34.66634 -1.421728
2005-10-24 08:02:07 51°16.648 2°32.79 -999 4.368404 34.654182 -1.421728
2005-10-24 08:03:07 51°16.802 2°32.547 -999 4.371309 34.660706 -1.421728
2005-10-24 08:04:07 51°16.956 2°32.305 -999 4.371516 34.650428 -1.421728
2005-10-24 08:05:07 51°17.109 2°32.059 -999 4.370582 34.632174 -1.421728
2005-10-24 08:06:07 51°17.263 2°31.815 -999 4.374732 34.659002 -1.421728
2005-10-24 08:07:07 51°17.417 2°31.571 -999 4.377429 34.675081 -1.421728
2005-10-24 08:08:07 51°17.569 2°31.324 -999 4.378778 34.692029 -1.421728
2005-10-24 08:09:07 51°17.723 2°31.08 -999 4.375458 34.698963 -1.421728
2005-10-24 08:10:07 51°17.871 2°30.83 -999 4.37411 34.702703 -1.421728
2005-10-24 08:11:07 51°18.017 2°30.571 -999 4.373902 34.698003 -1.421728
2005-10-24 08:12:07 51°18.158 2°30.31 -999 4.370791 34.690367 -1.421728
2005-10-24 08:13:07 51°18.3 2°30.047 -999 4.369961 34.689426 -1.421728
2005-10-24 08:14:07 51°18.441 2°29.784 -999 4.373073 34.697777 -1.421728
2005-10-24 08:15:07 51°18.581 2°29.524 -999 4.377326 34.713396 -1.421728
2005-10-24 08:16:07 51°18.723 2°29.267 -999 4.380853 34.718278 -1.421728
2005-10-24 08:17:07 51°18.86 2°29.001 -999 4.38189 34.716776 -1.421728
2005-10-24 08:18:07 51°18.931 2°28.699 -999 4.383238 34.721602 -1.421728
2005-10-24 08:19:07 51°18.836 2°28.447 -999 4.384898 34.72348 -1.421728
2005-10-24 08:20:07 51°18.657 2°28.327 -999 4.387077 34.722827 -1.421728
2005-10-24 08:21:07 51°18.491 2°28.155 -999 4.386558 34.723932 -1.421728
2005-10-24 08:22:07 51°18.323 2°27.984 -999 4.386247 34.723312 -1.421728
2005-10-24 08:23:07 51°18.157 2°27.817 -999 4.385832 34.721061 -1.421728
2005-10-24 08:24:07 51°18.056 2°27.675 -999 4.385106 34.723893 -1.421728
2005-10-24 08:25:07 51°18.045 2°27.611 -999 4.383965 34.722334 -1.421728
2005-10-24 08:26:07 51°18.066 2°27.608 -999 4.383965 34.723761 -1.421728
2005-10-24 08:27:07 51°18.089 2°27.622 -999 4.383965 34.723761 -1.421728
2005-10-24 08:28:07 51°18.109 2°27.641 -999 4.384276 34.72438 -1.421728
2005-10-24 08:29:07 51°18.129 2°27.658 -999 4.384068 34.726821 -1.421728
2005-10-24 08:30:07 51°18.16 2°27.662 -999 4.383965 34.725187 -1.421728
2005-10-24 08:31:07 51°18.249 2°27.709 -999 4.384587 34.724286 -1.421728
2005-10-24 08:32:07 51°18.381 2°27.885 -999 4.385313 34.726445 -1.421728
2005-10-24 08:33:07 51°18.532 2°28.089 -999 4.386143 34.725245 -1.421728
2005-10-24 08:34:07 51°18.681 2°28.303 -999 4.386454 34.725864 -1.421728
2005-10-24 08:35:07 51°18.811 2°28.549 -999 4.386765 34.725058 -1.421728
2005-10-24 08:36:07 51°18.937 2°28.793 -999 4.386765 34.727196 -1.421728
2005-10-24 08:37:07 51°19.004 2°28.988 -999 4.386869 34.717426 -1.421728
2005-10-24 08:38:07 51°19.002 2°29.138 -999 4.385935 34.720555 -1.421728
2005-10-24 08:39:07 51°18.963 2°29.25 -999 4.385313 34.719315 -1.421728
2005-10-24 08:40:07 51°18.918 2°29.328 -999 4.384691 34.720927 -1.421728
2005-10-24 08:41:07 51°18.855 2°29.346 -999 4.384068 34.718262 -1.421728
2005-10-24 08:42:07 51°18.788 2°29.297 -999 4.383446 34.719875 -1.421728
2005-10-24 08:43:07 51°18.746 2°29.269 -999 4.382927 34.720982 -1.421728
2005-10-24 08:44:07 51°18.706 2°29.243 -999 4.383031 34.719049 -1.421728
2005-10-24 08:45:07 51°18.664 2°29.207 -999 4.382927 34.719555 -1.421728
2005-10-24 08:46:07 51°18.63 2°29.175 -999 4.382927 34.718842 -1.421728
2005-10-24 08:47:07 51°18.599 2°29.155 -999 4.382927 34.719555 -1.421728
2005-10-24 08:48:07 51°18.561 2°29.128 -999 4.382927 34.720269 -1.421728
2005-10-24 08:49:07 51°18.524 2°29.096 -999 4.38272 34.721282 -1.421728
2005-10-24 08:50:07 51°18.488 2°29.066 -999 4.38272 34.720569 -1.421728
2005-10-24 08:51:07 51°18.452 2°29.037 -999 4.382824 34.721489 -1.421728
2005-10-24 08:52:07 51°18.412 2°28.999 -999 4.382616 34.721076 -1.421728
2005-10-24 08:53:07 51°18.375 2°28.969 -999 4.382927 34.721696 -1.421728
2005-10-24 08:54:07 51°18.34 2°28.933 -999 4.382927 34.721696 -1.421728
2005-10-24 08:55:07 51°18.304 2°28.895 -999 4.382824 34.722202 -1.421728
2005-10-24 08:56:07 51°18.267 2°28.865 -999 4.382927 34.722409 -1.421728
2005-10-24 08:57:07 51°18.23 2°28.836 -999 4.383135 34.724249 -1.421728
2005-10-24 08:58:07 51°18.2 2°28.804 -999 4.383135 34.723535 -1.421728
2005-10-24 08:59:07 51°18.167 2°28.767 -999 4.382927 34.723836 -1.421728
2005-10-24 09:00:07 51°18.13 2°28.734 -999 4.382616 34.724644 -1.421728
2005-10-24 09:01:07 51°18.096 2°28.704 -999 4.382201 34.723818 -1.421728
2005-10-24 09:02:07 51°18.065 2°28.669 -999 4.38189 34.724626 -1.421728
2005-10-24 09:03:07 51°18.031 2°28.626 -999 4.381579 34.724007 -1.421728
2005-10-24 09:04:07 51°17.993 2°28.594 -999 4.381371 34.723594 -1.421728
2005-10-24 09:05:07 51°17.956 2°28.567 -999 4.380956 34.723482 -1.421728
2005-10-24 09:06:07 51°17.919 2°28.53 -999 4.380438 34.723163 -1.421728
2005-10-24 09:07:07 51°17.882 2°28.496 -999 4.380023 34.721623 -1.421728
2005-10-24 09:08:07 51°17.844 2°28.467 -999 4.379193 34.717829 -1.421728
2005-10-24 09:09:07 51°17.81 2°28.438 -999 4.378674 34.715368 -1.421728
2005-10-24 09:10:07 51°17.774 2°28.406 -999 4.378882 34.718638 -1.421728
2005-10-24 09:11:07 51°17.736 2°28.383 -999 4.379089 34.719765 -1.421728
2005-10-24 09:12:07 51°17.7 2°28.364 -999 4.378778 34.719859 -1.421728
2005-10-24 09:13:07 51°17.661 2°28.339 -999 4.378571 34.719446 -1.421728
2005-10-24 09:14:07 51°17.621 2°28.31 -999 4.378571 34.718018 -1.421728
2005-10-24 09:15:07 51°17.583 2°28.288 -999 4.378467 34.718526 -1.421728
2005-10-24 09:16:07 51°17.546 2°28.263 -999 4.378363 34.718319 -1.421728
2005-10-24 09:17:07 51°17.514 2°28.242 -999 4.378156 34.717906 -1.421728
2005-10-24 09:18:07 51°17.482 2°28.217 -999 4.378156 34.717906 -1.421728
2005-10-24 09:19:07 51°17.448 2°28.184 -999 4.378259 34.718113 -1.421728
2005-10-24 09:20:07 51°17.41 2°28.144 -999 4.378259 34.716684 -1.421728
2005-10-24 09:21:07 51°17.37 2°28.099 -999 4.378156 34.717906 -1.421728
2005-10-24 09:22:07 51°17.341 2°28.051 -999 4.378156 34.717192 -1.421728
2005-10-24 09:23:07 51°17.312 2°27.998 -999 4.377948 34.718207 -1.421728
2005-10-24 09:24:07 51°17.287 2°27.94 -999 4.377844 34.717286 -1.421728
2005-10-24 09:25:07 51°17.266 2°27.882 -999 4.377844 34.717286 -1.421728
2005-10-24 09:26:07 51°17.262 2°27.863 -999 4.378467 34.717097 -1.421728
2005-10-24 09:27:07 51°17.278 2°27.869 -999 4.378571 34.717304 -1.421728
2005-10-24 09:28:07 51°17.306 2°27.876 -999 4.378674 34.718939 -1.421728
2005-10-24 09:29:07 51°17.326 2°27.884 -999 4.378674 34.718225 -1.421728
2005-10-24 09:30:07 51°17.331 2°28.031 -999 4.378363 34.717605 -1.421728
2005-10-24 09:31:07 51°17.285 2°28.264 -999 4.378571 34.715876 -1.421728
2005-10-24 09:32:07 51°17.225 2°28.518 -999 4.377948 34.714636 -1.421728
2005-10-24 09:33:07 51°17.164 2°28.771 -999 4.376807 34.708078 -1.421728
2005-10-24 09:34:07 51°17.102 2°29.027 -999 4.374421 34.702609 -1.421728
2005-10-24 09:35:07 51°17.043 2°29.281 -999 4.373902 34.695146 -1.421728
2005-10-24 09:36:07 51°16.986 2°29.547 -999 4.372969 34.693998 -1.421728
2005-10-24 09:37:07 51°16.92 2°29.853 -999 4.374421 34.700466 -1.421728
2005-10-24 09:38:07 51°16.848 2°30.171 -999 4.374732 34.688235 -1.421728
2005-10-24 09:39:07 51°16.772 2°30.488 -999 4.376392 34.683701 -1.421728
2005-10-24 09:40:07 51°16.699 2°30.806 -999 4.378155 34.688648 -1.421728
2005-10-24 09:41:07 51°16.625 2°31.124 -999 4.378259 34.683865 -1.421728
2005-10-24 09:42:07 51°16.548 2°31.438 -999 4.377636 34.677633 -1.421728
2005-10-24 09:43:07 51°16.419 2°31.699 -999 4.377533 34.671726 -1.421728
2005-10-24 09:44:07 51°16.272 2°31.931 -999 4.375665 34.672269 -1.421728
2005-10-24 09:45:07 51°16.114 2°32.147 -999 4.374109 34.663457 -1.421728
2005-10-24 09:46:07 51°15.955 2°32.361 -999 4.372139 34.673066 -1.421728
2005-10-24 09:47:07 51°15.792 2°32.542 -999 4.371205 34.679766 -1.388018
2005-10-24 09:48:07 51°15.632 2°32.719 -999 4.370479 34.677602 -1.421728
2005-10-24 09:49:07 51°15.459 2°32.877 -999 4.368923 34.677352 -1.421728
2005-10-24 09:50:07 51°15.282 2°33.035 -999 4.366952 34.671986 -1.421728
2005-10-24 09:51:07 51°15.103 2°33.199 -999 4.36467 34.663852 -1.421728
2005-10-24 09:52:07 51°14.922 2°33.364 -999 4.36187 34.656822 -1.421728
2005-10-24 09:53:07 51°14.739 2°33.516 -999 4.362596 34.662564 -1.421728
2005-10-24 09:54:07 51°14.549 2°33.654 -999 4.363114 34.653593 -1.421728
2005-10-24 09:55:07 51°14.36 2°33.793 -999 4.362492 34.643775 -1.421728
2005-10-24 09:56:07 51°14.185 2°33.922 -999 4.360106 34.646144 -1.421728
2005-10-24 09:57:07 51°14.076 2°33.965 -999 4.350563 34.640642 -1.421728
2005-10-24 09:58:07 51°14.012 2°33.981 -999 4.340813 34.630448 -1.421728
2005-10-24 09:59:07 51°14.011 2°33.989 -999 4.335316 34.623031 -1.421728
2005-10-24 10:00:07 51°14.023 2°33.996 -999 4.333034 34.620617 -1.421728
2005-10-24 10:01:07 51°14.036 2°34.001 -999 4.331478 34.621099 -1.421728
2005-10-24 10:02:07 51°14.045 2°34.009 -999 4.33096 34.61862 -1.421728
2005-10-24 10:03:07 51°14.048 2°34.05 -999 4.33096 34.62078 -1.421728
2005-10-24 10:04:07 51°14.048 2°34.294 -999 4.330545 34.617789 -1.421728
2005-10-24 10:05:07 51°14.07 2°34.629 -999 4.328885 34.607983 -1.421728
2005-10-24 10:06:07 51°14.1 2°34.964 -999 4.326396 34.597949 -1.388018
2005-10-24 10:07:07 51°14.131 2°35.305 -999 4.325981 34.588479 -1.421728
2005-10-24 10:08:07 51°14.173 2°35.638 -999 4.325774 34.588782 -1.421728
2005-10-24 10:09:07 51°14.204 2°35.972 -999 4.324944 34.597196 -1.388018
2005-10-24 10:10:07 51°14.213 2°36.309 -999 4.324737 34.603263 -1.388018
2005-10-24 10:11:07 51°14.229 2°36.638 -999 4.323803 34.613647 -1.388018
2005-10-24 10:12:07 51°14.23 2°36.97 -999 4.323285 34.621988 -1.421728
2005-10-24 10:13:07 51°14.232 2°37.302 -999 4.323181 34.630443 -1.421728
2005-10-24 10:14:07 51°14.228 2°37.63 -999 4.321937 34.6359 -1.421728
2005-10-24 10:15:07 51°14.217 2°37.964 -999 4.319137 34.641148 -1.421728
2005-10-24 10:16:07 51°14.208 2°38.295 -999 4.318203 34.641453 -1.421728
2005-10-24 10:17:07 51°14.176 2°38.625 -999 4.317062 34.646413 -1.421728
2005-10-24 10:18:07 51°14.094 2°38.916 -999 4.313536 34.645166 -1.421728
2005-10-24 10:19:07 51°13.902 2°39.019 -999 4.309387 34.641956 -1.421728
2005-10-24 10:20:07 51°13.702 2°38.93 -999 4.307209 34.640509 -1.388018
2005-10-24 10:21:07 51°13.513 2°38.771 -999 4.307209 34.634701 -1.421728
2005-10-24 10:22:07 51°13.324 2°38.611 -999 4.307209 34.631798 -1.388018
2005-10-24 10:23:07 51°13.136 2°38.45 -999 4.30752 34.629518 -1.421728
2005-10-24 10:24:07 51°12.947 2°38.291 -999 4.305757 34.620187 -1.388018
2005-10-24 10:25:07 51°12.76 2°38.129 -999 4.302853 34.608569 -1.421728
2005-10-24 10:26:07 51°12.571 2°37.968 -999 4.300882 34.595914 -1.421728
2005-10-24 10:27:07 51°12.382 2°37.806 -999 4.299534 34.583056 -1.421728
2005-10-24 10:28:07 51°12.193 2°37.645 -999 4.29943 34.579222 -1.421728
2005-10-24 10:29:07 51°12.003 2°37.482 -999 4.298082 34.580141 -1.421728
2005-10-24 10:30:07 51°11.815 2°37.314 -999 4.296941 34.584382 -1.421728
2005-10-24 10:31:07 51°11.627 2°37.139 -999 4.297045 34.583864 -1.421728
2005-10-24 10:32:07 51°11.44 2°36.965 -999 4.297563 34.582728 -1.421728
2005-10-24 10:33:07 51°11.253 2°36.79 -999 4.297978 34.575582 -1.388018
2005-10-24 10:34:07 51°11.067 2°36.615 -999 4.299326 34.557279 -1.421728
2005-10-24 10:35:07 51°10.88 2°36.441 -999 4.3014 34.546982 -1.421728
2005-10-24 10:36:07 51°10.707 2°36.239 -999 4.303059 34.546709 -1.388018
2005-10-24 10:37:07 51°10.548 2°36.013 -999 4.303371 34.550227 -1.421728
2005-10-24 10:38:07 51°10.387 2°35.787 -999 4.303889 34.54838 -1.421728
2005-10-24 10:39:07 51°10.226 2°35.559 -999 4.305134 34.54294 -1.421728
2005-10-24 10:40:07 51°10.066 2°35.332 -999 4.306067 34.54049 -1.421728
2005-10-24 10:41:07 51°9.906 2°35.098 -999 4.306793 34.536901 -1.421728
2005-10-24 10:42:07 51°9.747 2°34.858 -999 4.307311 34.537947 -1.421728
2005-10-24 10:43:07 51°9.588 2°34.615 -999 4.307208 34.538459 -1.388018
2005-10-24 10:44:07 51°9.43 2°34.371 -999 4.306793 34.537623 -1.421728
2005-10-24 10:45:07 51°9.271 2°34.127 -999 4.306378 34.534622 -1.421728
2005-10-24 10:46:07 51°9.112 2°33.886 -999 4.305445 34.534183 -1.421728
2005-10-24 10:47:07 51°8.952 2°33.645 -999 4.303578 34.527532 -1.421728
2005-10-24 10:48:07 51°8.792 2°33.401 -999 4.301607 34.519947 -1.421728
2005-10-24 10:49:07 51°8.633 2°33.159 -999 4.299948 34.515154 -1.421728
2005-10-24 10:50:07 51°8.474 2°32.918 -999 4.299014 34.50966 -1.388018
2005-10-24 10:51:07 51°8.314 2°32.676 -999 4.298599 34.505934 -1.388018
2005-10-24 10:52:07 51°8.154 2°32.434 -999 4.298392 34.500463 -1.421728
2005-10-24 10:53:07 51°7.992 2°32.193 -999 4.297562 34.493013 -1.421728
2005-10-24 10:54:07 51°7.831 2°31.948 -999 4.297458 34.488475 -1.421728
2005-10-24 10:55:07 51°7.679 2°31.744 -999 4.297977 34.484477 -1.421728
2005-10-24 10:56:07 51°7.604 2°31.786 -999 4.297873 34.484267 -1.421728
2005-10-24 10:57:07 51°7.627 2°31.868 -999 4.298288 34.485827 -1.388018
2005-10-24 10:58:07 51°7.678 2°31.953 -999 4.298391 34.482433 -1.421728
2005-10-24 10:59:07 51°7.725 2°32.057 -999 4.298288 34.482223 -1.388018
2005-10-24 11:00:07 51°7.767 2°32.171 -999 4.298495 34.47976 -1.421728
2005-10-24 11:01:07 51°7.791 2°32.281 -999 4.299014 34.478648 -1.388018
2005-10-24 11:02:07 51°7.799 2°32.362 -999 4.299221 34.477628 -1.388018
2005-10-24 11:03:07 51°7.806 2°32.437 -999 4.29974 34.475797 -1.421728
2005-10-24 11:04:07 51°7.811 2°32.512 -999 4.299843 34.474567 -1.421728
2005-10-24 11:05:07 51°7.818 2°32.581 -999 4.299739 34.474356 -1.421728
2005-10-24 11:06:07 51°7.83 2°32.646 -999 4.299532 34.474656 -1.388018
2005-10-24 11:07:07 51°7.85 2°32.712 -999 4.299221 34.475466 -1.388018
2005-10-24 11:08:07 51°7.876 2°32.774 -999 4.296109 34.452595 -1.388018
2005-10-24 11:09:07 51°7.902 2°32.835 -999 4.295487 34.457093 -1.388018
2005-10-24 11:10:07 51°7.928 2°32.895 -999 4.295176 34.462226 -1.388018
2005-10-24 11:11:07 51°7.954 2°32.952 -999 4.294035 34.452707 -1.421728
2005-10-24 11:12:07 51°7.986 2°33.005 -999 4.293828 34.447964 -1.421728
2005-10-24 11:13:07 51°8.02 2°33.053 -999 4.295383 34.461205 -1.388018
2005-10-24 11:14:07 51°8.054 2°33.106 -999 4.296006 34.463908 -1.388018
2005-10-24 11:15:07 51°8.082 2°33.163 -999 4.295487 34.457093 -1.388018
2005-10-24 11:16:07 51°8.109 2°33.221 -999 4.295591 34.456584 -1.388018
2005-10-24 11:17:07 51°8.136 2°33.275 -999 4.296317 34.463098 -1.388018
2005-10-24 11:18:07 51°8.162 2°33.329 -999 4.295487 34.453492 -1.388018
2005-10-24 11:19:07 51°8.187 2°33.381 -999 4.296939 34.46508 -1.388018
2005-10-24 11:20:07 51°8.212 2°33.435 -999 4.297665 34.469433 -1.388018
2005-10-24 11:21:07 51°8.235 2°33.49 -999 4.297458 34.466852 -1.388018
2005-10-24 11:22:07 51°8.255 2°33.546 -999 4.296835 34.464149 -1.388018
2005-10-24 11:23:07 51°8.275 2°33.6 -999 4.297147 34.471264 -1.388018
2005-10-24 11:24:07 51°8.298 2°33.65 -999 4.295383 34.459764 -1.388018
2005-10-24 11:25:07 51°8.322 2°33.701 -999 4.297562 34.482916 -1.388018
2005-10-24 11:26:07 51°8.349 2°33.752 -999 4.297147 34.484239 -1.388018
2005-10-24 11:27:07 51°8.371 2°33.808 -999 4.296628 34.483911 -1.388018
2005-10-24 11:28:07 51°8.388 2°33.866 -999 4.295695 34.483464 -1.421728
2005-10-24 11:29:07 51°8.406 2°33.921 -999 4.294865 34.482506 -1.388018
2005-10-24 11:30:07 51°8.427 2°33.977 -999 4.294139 34.481759 -1.388018
2005-10-24 11:31:07 51°8.451 2°34.032 -999 4.293828 34.480407 -1.388018
2005-10-24 11:32:07 51°8.479 2°34.089 -999 4.293621 34.478544 -1.388018
2005-10-24 11:33:07 51°8.507 2°34.145 -999 4.293413 34.478124 -1.388018
2005-10-24 11:34:07 51°8.532 2°34.203 -999 4.293517 34.478334 -1.388018
2005-10-24 11:35:07 51°8.553 2°34.262 -999 4.293621 34.477822 -1.421728
2005-10-24 11:36:07 51°8.574 2°34.323 -999 4.293413 34.477402 -1.388018
2005-10-24 11:37:07 51°8.593 2°34.384 -999 4.29331 34.477914 -1.388018
2005-10-24 11:38:07 51°8.611 2°34.446 -999 4.293413 34.478124 -1.388018
2005-10-24 11:39:07 51°8.629 2°34.509 -999 4.293517 34.47689 -1.388018
2005-10-24 11:40:07 51°8.651 2°34.567 -999 4.293932 34.477009 -1.388018
2005-10-24 11:41:07 51°8.672 2°34.624 -999 4.294035 34.477219 -1.388018
2005-10-24 11:42:07 51°8.686 2°34.683 -999 4.294347 34.477849 -1.388018
2005-10-24 11:43:07 51°8.697 2°34.743 -999 4.294035 34.477219 -1.388018
2005-10-24 11:44:07 51°8.703 2°34.804 -999 4.294035 34.475776 -1.388018
2005-10-24 11:45:07 51°8.703 2°34.853 -999 4.293932 34.476287 -1.388018
2005-10-24 11:46:07 51°8.699 2°34.885 -999 4.293932 34.475566 -1.388018
2005-10-24 11:47:07 51°8.694 2°34.905 -999 4.293828 34.476077 -1.388018
2005-10-24 11:48:07 51°8.688 2°34.93 -999 4.293621 34.475657 -1.388018
2005-10-24 11:49:07 51°8.714 2°34.998 -999 4.293413 34.475237 -1.388018
2005-10-24 11:50:07 51°8.781 2°35.048 -999 4.292998 34.473675 -1.388018
2005-10-24 11:51:07 51°8.825 2°35.113 -999 4.29248 34.475512 -1.388018
2005-10-24 11:52:07 51°8.865 2°35.168 -999 4.291858 34.475695 -1.388018
2005-10-24 11:53:07 51°8.904 2°35.219 -999 4.291339 34.475367 -1.388018
2005-10-24 11:54:07 51°8.934 2°35.275 -999 4.291028 34.475459 -1.388018
2005-10-24 11:55:07 51°8.957 2°35.337 -999 4.290924 34.477416 -1.388018
2005-10-24 11:56:07 51°8.98 2°35.399 -999 4.290821 34.47865 -1.388018
2005-10-24 11:57:07 51°9.005 2°35.462 -999 4.291028 34.480515 -1.388018
2005-10-24 11:58:07 51°9.031 2°35.524 -999 4.290821 34.482262 -1.388018
2005-10-24 11:59:07 51°9.057 2°35.585 -999 4.290924 34.484639 -1.388018
2005-10-24 12:00:07 51°9.082 2°35.647 -999 4.290821 34.485152 -1.421728
2005-10-24 12:01:07 51°9.106 2°35.708 -999 4.290302 34.486271 -1.388018
2005-10-24 12:02:07 51°9.13 2°35.769 -999 4.290198 34.487507 -1.388018
2005-10-24 12:03:07 51°9.155 2°35.832 -999 4.290095 34.488742 -1.388018
2005-10-24 12:04:07 51°9.178 2°35.894 -999 4.289991 34.489979 -1.388018
2005-10-24 12:05:07 51°9.199 2°35.958 -999 4.289784 34.491728 -1.388018
2005-10-24 12:06:07 51°9.22 2°36.023 -999 4.289473 34.493269 -1.388018
2005-10-24 12:07:07 51°9.242 2°36.088 -999 4.289265 34.492849 -1.388018
2005-10-24 12:08:07 51°9.263 2°36.153 -999 4.289058 34.493877 -1.388018
2005-10-24 12:09:07 51°9.284 2°36.218 -999 4.288539 34.493552 -1.388018
2005-10-24 12:10:07 51°9.305 2°36.284 -999 4.288228 34.49437 -1.388018
2005-10-24 12:11:07 51°9.325 2°36.348 -999 4.288228 34.493646 -1.388018
2005-10-24 12:12:07 51°9.346 2°36.413 -999 4.288021 34.49395 -1.388018
2005-10-24 12:13:07 51°9.366 2°36.477 -999 4.28771 34.494045 -1.388018
2005-10-24 12:14:07 51°9.387 2°36.541 -999 4.286672 34.486883 -1.388018
2005-10-24 12:15:07 51°9.408 2°36.607 -999 4.286154 34.483663 -1.388018
2005-10-24 12:16:07 51°9.428 2°36.673 -999 4.286154 34.487281 -1.388018
2005-10-24 12:17:07 51°9.449 2°36.739 -999 4.285428 34.4793 -1.388018
2005-10-24 12:18:07 51°9.471 2°36.805 -999 4.284805 34.477317 -1.388018
2005-10-24 12:19:07 51°9.494 2°36.868 -999 4.285013 34.480631 -1.388018
2005-10-24 12:20:07 51°9.519 2°36.929 -999 4.284909 34.480421 -1.388018
2005-10-24 12:21:07 51°9.548 2°36.987 -999 4.284909 34.48404 -1.388018
2005-10-24 12:22:07 51°9.578 2°37.047 -999 4.283976 34.47419 -1.421728
2005-10-24 12:23:07 51°9.609 2°37.104 -999 4.283976 34.473467 -1.421728
2005-10-24 12:24:07 51°9.639 2°37.162 -999 4.285532 34.488194 -1.388018
2005-10-24 12:25:07 51°9.669 2°37.221 -999 4.284702 34.480002 -1.388018
2005-10-24 12:26:07 51°9.695 2°37.283 -999 4.285532 34.486023 -1.388018
2005-10-24 12:27:07 51°9.712 2°37.349 -999 4.285013 34.47846 -1.421728
2005-10-24 12:28:07 51°9.722 2°37.416 -999 4.285843 34.485204 -1.388018
2005-10-24 12:29:07 51°9.728 2°37.482 -999 4.285843 34.487376 -1.388018
2005-10-24 12:30:07 51°9.729 2°37.549 -999 4.28325 34.467656 -1.388018
2005-10-24 12:31:07 51°9.727 2°37.598 -999 4.284598 34.481963 -1.421728
2005-10-24 12:32:07 51°9.722 2°37.635 -999 4.282627 34.470737 -1.421728
2005-10-24 12:33:07 51°9.718 2°37.661 -999 4.28325 34.479235 -1.421728
2005-10-24 12:34:07 51°9.699 2°37.715 -999 4.28159 34.470808 -1.388018
2005-10-24 12:35:07 51°9.646 2°37.874 -999 4.281072 34.470482 -1.388018
2005-10-24 12:36:07 51°9.611 2°38.058 -999 4.276923 34.456284 -1.388018
2005-10-24 12:37:07 51°9.591 2°38.183 -999 4.276198 34.464957 -1.421728
2005-10-24 12:38:07 51°9.573 2°38.276 -999 4.275057 34.453224 -1.388018
2005-10-24 12:39:07 51°9.561 2°38.36 -999 4.274849 34.446283 -1.388018
2005-10-24 12:40:07 51°9.548 2°38.436 -999 4.276612 34.45348 -1.388018
2005-10-24 12:41:07 51°9.538 2°38.505 -999 4.274538 34.426831 -1.388018
2005-10-24 12:42:07 51°9.533 2°38.572 -999 4.276923 34.446871 -1.388018
2005-10-24 12:43:07 51°9.528 2°38.638 -999 4.27796 34.45187 -1.388018
2005-10-24 12:44:07 51°9.53 2°38.703 -999 4.276716 34.439213 -1.388018
2005-10-24 12:45:07 51°9.537 2°38.77 -999 4.278998 34.458316 -1.388018
2005-10-24 12:46:07 51°9.55 2°38.837 -999 4.278998 34.457592 -1.388018
2005-10-24 12:47:07 51°9.569 2°38.904 -999 4.278583 34.458199 -1.388018
2005-10-24 12:48:07 51°9.592 2°38.97 -999 4.278168 34.456634 -1.388018
2005-10-24 12:49:07 51°9.615 2°39.039 -999 4.277338 34.454952 -1.388018
2005-10-24 12:50:07 51°9.638 2°39.109 -999 4.276612 34.452032 -1.388018
2005-10-24 12:51:07 51°9.658 2°39.18 -999 4.275783 34.449625 -1.388018
2005-10-24 12:52:07 51°9.68 2°39.248 -999 4.274538 34.445652 -1.388018
2005-10-24 12:53:07 51°9.703 2°39.315 -999 4.273293 34.440954 -1.388018
2005-10-24 12:54:07 51°9.724 2°39.384 -999 4.272464 34.438545 -1.388018
2005-10-24 12:55:07 51°9.746 2°39.452 -999 4.271323 34.434056 -1.388018
2005-10-24 12:56:07 51°9.768 2°39.522 -999 4.269767 34.431622 -1.388018
2005-10-24 12:57:07 51°9.789 2°39.591 -999 4.267797 34.42472 -1.388018
2005-10-24 12:58:07 51°9.812 2°39.66 -999 4.265515 34.417908 -1.388018
2005-10-24 12:59:07 51°9.834 2°39.73 -999 4.264167 34.415167 -1.388018
2005-10-24 13:00:07 51°9.858 2°39.798 -999 4.263752 34.415049 -1.388018
2005-10-24 13:01:07 51°9.885 2°39.867 -999 4.256596 34.382348 -1.388018
2005-10-24 13:02:07 51°9.91 2°39.938 -999 4.232122 34.274934 -1.388018
2005-10-24 13:03:07 51°9.934 2°40.01 -999 4.216152 34.200643 -1.388018
2005-10-24 13:04:07 51°9.959 2°40.081 -999 4.206612 34.148947 -1.388018
2005-10-24 13:05:07 51°9.983 2°40.154 -999 4.19956 34.102369 -1.388018
2005-10-24 13:06:07 51°10.008 2°40.226 -999 4.19479 34.067774 -1.388018
2005-10-24 13:07:07 51°10.032 2°40.299 -999 4.193442 34.055539 -1.388018
2005-10-24 13:08:07 51°10.057 2°40.372 -999 4.193338 34.049529 -1.388018
2005-10-24 13:09:07 51°10.081 2°40.445 -999 4.192923 34.042145 -1.388018
2005-10-24 13:10:07 51°10.106 2°40.519 -999 4.19479 34.051841 -1.388018
2005-10-24 13:11:07 51°10.125 2°40.595 -999 4.196242 34.057048 -1.388018
2005-10-24 13:12:07 51°10.136 2°40.671 -999 4.197278 34.063558 -1.388018
2005-10-24 13:13:07 51°10.143 2°40.745 -999 4.19956 34.081354 -1.388018
2005-10-24 13:14:07 51°10.148 2°40.819 -999 4.201738 34.098208 -1.388018
2005-10-24 13:15:07 51°10.146 2°40.889 -999 4.196345 34.065953 -1.421728
2005-10-24 13:16:07 51°10.141 2°40.941 -999 4.190642 34.040991 -1.388018
2005-10-24 13:17:07 51°10.138 2°40.983 -999 4.190953 34.045988 -1.388018
2005-10-24 13:18:07 51°10.137 2°41.018 -999 4.191264 34.050986 -1.388018
2005-10-24 13:19:07 51°10.139 2°41.05 -999 4.193027 34.064817 -1.421728
2005-10-24 13:20:07 51°10.141 2°41.08 -999 4.19479 34.074297 -1.421728
2005-10-24 13:21:07 51°10.139 2°41.12 -999 4.196657 34.081816 -1.388018
2005-10-24 13:22:07 51°10.166 2°41.232 -999 4.197383 34.092755 -1.388018
2005-10-24 13:23:07 51°10.239 2°41.196 -999 4.199871 34.110995 -1.388018
2005-10-24 13:24:07 51°10.201 2°41.02 -999 4.209412 34.164915 -1.388018
2005-10-24 13:25:07 51°10.136 2°40.738 -999 4.212107 34.158898 -1.388018
2005-10-24 13:26:07 51°10.073 2°40.446 -999 4.206093 34.126838 -1.388018
2005-10-24 13:27:07 51°10.01 2°40.154 -999 4.204123 34.104625 -1.388018
2005-10-24 13:28:07 51°9.97 2°39.991 -999 4.203293 34.120291 -1.388018
2005-10-24 13:29:07 51°9.97 2°39.983 -999 4.217293 34.210987 -1.388018
2005-10-24 13:30:07 51°9.982 2°39.995 -999 4.24073 34.330345 -1.388018
2005-10-24 13:31:07 51°10.008 2°39.999 -999 4.248611 34.367516 -1.388018
2005-10-24 13:32:07 51°10.102 2°40.087 -999 4.256286 34.401313 -1.388018
2005-10-24 13:33:07 51°10.197 2°40.39 -999 4.261367 34.422539 -1.388018
2005-10-24 13:34:07 51°10.288 2°40.717 -999 4.24187 34.325417 -1.388018
2005-10-24 13:35:07 51°10.379 2°41.046 -999 4.224759 34.223497 -1.388018
2005-10-24 13:36:07 51°10.47 2°41.374 -999 4.221959 34.20539 -1.388018
2005-10-24 13:37:07 51°10.556 2°41.701 -999 4.243011 34.335739 -1.388018
2005-10-24 13:38:07 51°10.645 2°42.028 -999 4.263546 34.462572 -1.388018
2005-10-24 13:39:07 51°10.734 2°42.355 -999 4.268835 34.492915 -1.388018
2005-10-24 13:40:07 51°10.825 2°42.681 -999 4.27205 34.512505 -1.388018
2005-10-24 13:41:07 51°10.916 2°43.008 -999 4.273606 34.526563 -1.388018
2005-10-24 13:42:07 51°11.002 2°43.343 -999 4.27371 34.535513 -1.421728
2005-10-24 13:43:07 51°11.082 2°43.676 -999 4.273814 34.542281 -1.388018
2005-10-24 13:44:07 51°11.159 2°44.009 -999 4.272673 34.548008 -1.388018
2005-10-24 13:45:07 51°11.233 2°44.346 -999 4.271117 34.554368 -1.388018
2005-10-24 13:46:07 51°11.31 2°44.681 -999 4.268214 34.550724 -1.421728
2005-10-24 13:47:07 51°11.392 2°45.016 -999 4.263443 34.542596 -1.421728
2005-10-24 13:48:07 51°11.47 2°45.35 -999 4.260332 34.538534 -1.388018
2005-10-24 13:49:07 51°11.546 2°45.683 -999 4.257221 34.532276 -1.388018
2005-10-24 13:50:07 51°11.639 2°46.008 -999 4.253384 34.527485 -1.388018
2005-10-24 13:51:07 51°11.73 2°46.332 -999 4.249651 34.520704 -1.388018
2005-10-24 13:52:07 51°11.824 2°46.657 -999 4.247888 34.521556 -1.421728
2005-10-24 13:53:07 51°11.919 2°46.981 -999 4.248614 34.528887 -1.388018
2005-10-24 13:54:07 51°12.02 2°47.303 -999 4.246955 34.52922 -1.388018
2005-10-24 13:55:07 51°12.12 2°47.624 -999 4.245399 34.530498 -1.388018
2005-10-24 13:56:07 51°12.222 2°47.946 -999 4.242807 34.527489 -1.388018
2005-10-24 13:57:07 51°12.324 2°48.269 -999 4.238555 34.518935 -1.388018
2005-10-24 13:58:07 51°12.426 2°48.591 -999 4.234407 34.505431 -1.388018
2005-10-24 13:59:07 51°12.534 2°48.909 -999 4.229015 34.493091 -1.388018
2005-10-24 14:00:07 51°12.645 2°49.225 -999 4.2258 34.48366 -1.388018
2005-10-24 14:01:07 51°12.75 2°49.544 -999 4.22383 34.477472 -1.388018
2005-10-24 14:02:07 51°12.859 2°49.86 -999 4.221756 34.47476 -1.421728
2005-10-24 14:03:07 51°12.969 2°50.179 -999 4.21906 34.467103 -1.388018
2005-10-24 14:04:07 51°13.076 2°50.498 -999 4.2174 34.461538 -1.421728
2005-10-24 14:05:07 51°13.183 2°50.815 -999 4.215845 34.453966 -1.388018
2005-10-24 14:06:07 51°13.299 2°51.129 -999 4.215119 34.451761 -1.388018
2005-10-24 14:07:07 51°13.416 2°51.444 -999 4.214808 34.44818 -1.388018
2005-10-24 14:08:07 51°13.531 2°51.757 -999 4.214601 34.446285 -1.388018
2005-10-24 14:09:07 51°13.649 2°52.073 -999 4.215949 34.4468 -1.388018
2005-10-24 14:10:07 51°13.766 2°52.39 -999 4.21823 34.452889 -1.388018
2005-10-24 14:11:07 51°13.882 2°52.708 -999 4.189298 34.297484 -1.388018
2005-10-24 14:12:07 51°13.993 2°53.03 -999 4.179966 34.229011 -1.388018
2005-10-24 14:13:07 51°14.098 2°53.354 -999 4.165241 34.118494 -1.388018
2005-10-24 14:14:07 51°14.192 2°53.661 -999 4.159642 34.071647 -1.388018
2005-10-24 14:15:07 51°14.286 2°53.946 -999 4.159849 34.061094 -1.388018
2005-10-24 14:16:07 51°14.373 2°54.077 -999 4.157464 34.037814 -1.388018
2005-10-24 14:17:07 51°14.427 2°54.16 -999 4.152694 33.999305 -1.388018
2005-10-24 14:18:07 51°14.453 2°54.248 -999 4.150206 33.978736 -1.388018
2005-10-24 14:19:07 51°14.466 2°54.322 -999 4.147821 33.960575 -1.388018
2005-10-24 14:20:07 51°14.476 2°54.386 -999 4.146369 33.950948 -1.388018
2005-10-24 14:21:07 51°14.468 2°54.53 -999 4.147199 33.955615 -1.388018
2005-10-24 14:22:07 51°14.436 2°54.84 -999 4.148858 33.974442 -1.388018
2005-10-24 14:23:07 51°14.34 2°55.123 -999 4.157257 34.046894 -1.388018
2005-10-24 14:24:08 51°14.214 2°55.338 -999 4.072238 33.298954 -1.118343
2005-10-24 14:25:08 51°14.089 2°55.45 -999 4.075451 33.323985 -1.28689
2005-10-24 14:26:07 51°13.978 2°55.531 -999 4.072756 33.296521 -1.28689
2005-10-24 14:27:07 51°13.869 2°55.61 -999 4.070993 33.265416 -1.28689
2005-10-24 14:28:07 51°13.765 2°55.699 -999 4.069438 33.245517 -1.28689
2005-10-24 14:29:07 51°13.698 2°55.821 -999 4.068194 33.229889 -1.28689
2005-10-24 14:30:07 51°13.649 2°55.939 -999 4.067053 33.21878 -1.28689
2005-10-24 14:31:07 51°13.617 2°56.031 -999 4.066431 33.210256 -1.28689
2005-10-24 14:32:07 51°13.605 2°56.092 -999 4.06612 33.202428 -1.28689
2005-10-24 14:33:07 51°13.602 2°56.098 -999 4.06612 33.194584 -1.28689